FZNA

Goma International Airport

Goma, Congo, Democratic Republic of
METAR FZNA 151600Z 15006KT 7000 SCT016 FEW018CB 22/16 Q1021 RERA CB W NOSIG
Observed Flight Rules
Feb-15 @ 16:00 UTC (3 hours ago) Marginal Visual Flight Rules
Wind Visibility Clouds
150° at 6 knots 7,001 meters
  • Scattered at 1,600' AGL
  • Few at 1,800' AGL
Temperatures Readings
Current 22°C / 72°F
Dewpoint 16°C / 61°F
Humidity 69%
Altimeter 30.15" Hg
Pressure 1020.92 hPa
Elevation 1552
METAR FZNA 151600Z 15006KT 7000 SCT016 FEW018CB 22/16 Q1021 RERA CB W NOSIG
Observed Flight Rules
Feb-15 @ 16:00 UTC
(3 hours ago)
MVFR
Wind Visibility
150° at 6 knots 7,001 meters
Clouds
  • Scattered at 1,600' AGL
  • Few at 1,800' AGL
Temperature Dewpoint
22°C / 72°F 16°C / 61°F
Humidity Altimeter Pressure
69% 30.15" Hg 1020.92 hPa